logo
Search for airport 
image banner adimage banner adimage banner ad
image banner ad

BIVM - Vestmannaeyjar

Located in Vestmannaeyjabaer, Iceland

ICAO - BIVM, IATA - VEY

Data provided by Airmate  

General information

Coordinates: N63°25'30" W20°16'45"
Elevation is 326 feet MSL.
 
View others Airports in South

Operational data

Special qualification required
Current time UTC:
Current local time:
Weather
METAR: BIVM 251700Z 17006KT 9999 SCT040 12/11 Q0991
View NOTAMs / SUP AIP / TFR affecting this airport [VIEW]
Communications frequencies: [VIEW]

Runways:

RWY identifierQFULength (ft)Width (ft)SurfaceLDA (ft)
12110°3934148GRAVE
30290°3934148GRAVE
0319°3806148GRAVE
21199°3806148GRAVE

Airport contact information

Address: Vestmannaeyjabaer Iceland

Satellite view of BIVM